Time;durP1;ratioP1;P1;durP2;ratioP2;P2;SDS_P1;SDS_P2;PMS_P1;PMS_P2;Temp;Humidity;BMP_temperature;BMP_pressure;BME280_temperature;BME280_humidity;BME280_pressure;Samples;Min_cycle;Max_cycle;Signal;HPM_P1;HPM_P2
2023/02/05 00:00:16;;;;;;;13.27;6.70;;;1.70;99.90;;;;;;5004591;28;20415;-80
2023/02/05 00:02:41;;;;;;;15.38;6.32;;;1.80;99.90;;;;;;5003281;28;20098;-79
2023/02/05 00:05:07;;;;;;;13.68;6.43;;;1.70;99.90;;;;;;5003924;28;20058;-81
2023/02/05 00:07:33;;;;;;;16.50;7.07;;;1.80;99.90;;;;;;5003787;28;20081;-82
2023/02/05 00:09:58;;;;;;;13.65;6.68;;;1.80;99.90;;;;;;5004438;28;20038;-82
2023/02/05 00:12:24;;;;;;;16.08;6.95;;;1.70;99.90;;;;;;5004357;28;20034;-82
2023/02/05 00:14:49;;;;;;;13.50;6.43;;;1.60;99.90;;;;;;5004190;28;20060;-84
2023/02/05 00:17:15;;;;;;;15.10;6.95;;;1.70;99.90;;;;;;5004372;28;20023;-83
2023/02/05 00:19:41;;;;;;;11.18;5.88;;;1.70;99.90;;;;;;5004381;28;20026;-83
2023/02/05 00:22:06;;;;;;;12.25;5.97;;;1.70;99.90;;;;;;5003760;28;20446;-81
2023/02/05 00:24:32;;;;;;;11.07;5.78;;;1.70;99.90;;;;;;5003686;28;20026;-80
2023/02/05 00:26:57;;;;;;;12.30;5.78;;;1.70;99.90;;;;;;5005150;28;20033;-81
2023/02/05 00:29:23;;;;;;;9.65;5.45;;;1.70;99.90;;;;;;5005248;28;20053;-81
2023/02/05 00:31:49;;;;;;;12.00;5.28;;;1.60;99.90;;;;;;5003696;28;20038;-81
2023/02/05 00:34:15;;;;;;;10.75;5.85;;;1.60;99.90;;;;;;5003914;28;20034;-82
2023/02/05 00:36:41;;;;;;;8.32;5.05;;;1.60;99.90;;;;;;5003856;28;20031;-80
2023/02/05 00:39:08;;;;;;;13.07;5.93;;;1.60;99.90;;;;;;5003060;28;20030;-80
2023/02/05 00:41:34;;;;;;;9.57;5.07;;;1.50;99.90;;;;;;5004920;28;20026;-82
2023/02/05 00:43:59;;;;;;;9.68;4.80;;;1.50;99.90;;;;;;5003624;28;20041;-79
2023/02/05 00:46:25;;;;;;;10.35;4.50;;;1.50;99.90;;;;;;5003426;28;20034;-82
2023/02/05 00:48:51;;;;;;;12.40;5.43;;;1.50;99.90;;;;;;5003350;28;20109;-82
2023/02/05 00:51:16;;;;;;;10.60;5.45;;;1.40;99.90;;;;;;5005238;28;20057;-81
2023/02/05 00:53:42;;;;;;;10.35;5.22;;;1.40;99.90;;;;;;5003837;28;20054;-79
2023/02/05 00:56:08;;;;;;;10.82;4.68;;;1.40;99.90;;;;;;5003349;28;20045;-80
2023/02/05 00:58:33;;;;;;;12.38;5.25;;;1.40;99.90;;;;;;5003447;28;20026;-81
2023/02/05 01:00:59;;;;;;;11.68;5.45;;;1.30;99.90;;;;;;5003398;28;20088;-82
2023/02/05 01:03:25;;;;;;;10.32;5.20;;;1.30;99.90;;;;;;5003172;28;20027;-81
2023/02/05 01:05:50;;;;;;;9.52;5.10;;;1.30;99.90;;;;;;5004020;28;20038;-82
2023/02/05 01:08:16;;;;;;;8.38;5.03;;;1.30;99.90;;;;;;5003242;28;20031;-82
2023/02/05 01:10:47;;;;;;;12.15;5.15;;;1.30;99.90;;;;;;5005063;28;20077;-83
2023/02/05 01:13:13;;;;;;;10.40;4.88;;;1.30;99.90;;;;;;5003496;28;20034;-81
2023/02/05 01:15:39;;;;;;;8.20;4.63;;;1.30;99.90;;;;;;5002044;28;20038;-82
2023/02/05 01:18:05;;;;;;;10.98;5.03;;;1.30;99.90;;;;;;5002667;28;20027;-80
2023/02/05 01:20:30;;;;;;;10.60;4.93;;;1.30;99.90;;;;;;5002547;28;20019;-83
2023/02/05 01:22:56;;;;;;;9.88;4.82;;;1.30;99.90;;;;;;5002961;28;20121;-80
2023/02/05 01:25:22;;;;;;;11.43;5.28;;;1.30;99.90;;;;;;5002631;28;20037;-81
2023/02/05 01:27:47;;;;;;;9.63;5.07;;;1.30;99.90;;;;;;5004322;28;20034;-83
2023/02/05 01:30:13;;;;;;;10.43;4.85;;;1.30;99.90;;;;;;5003243;28;20149;-83
2023/02/05 01:32:40;;;;;;;8.63;4.55;;;1.40;99.90;;;;;;5004379;28;20049;-83
2023/02/05 01:35:06;;;;;;;11.75;4.90;;;1.40;99.90;;;;;;5002866;28;20054;-80
2023/02/05 01:37:32;;;;;;;10.15;5.18;;;1.40;99.90;;;;;;5002949;28;20033;-82
2023/02/05 01:39:57;;;;;;;10.95;4.57;;;1.50;99.90;;;;;;5004138;28;20034;-83
2023/02/05 01:42:26;;;;;;;8.77;4.47;;;1.50;99.90;;;;;;5001872;28;20034;-82
2023/02/05 01:45:20;;;;;;;8.30;4.55;;;1.50;99.90;;;;;;4994764;28;20098;-81
2023/02/05 01:47:46;;;;;;;10.95;5.07;;;1.50;99.90;;;;;;4993667;28;20046;-80
2023/02/05 01:50:12;;;;;;;10.55;4.53;;;1.50;99.90;;;;;;4993818;28;20034;-82
2023/02/05 01:52:38;;;;;;;8.55;4.38;;;1.60;99.90;;;;;;4993358;28;20415;-83
2023/02/05 01:55:06;;;;;;;12.35;5.03;;;1.60;99.90;;;;;;4991827;28;20042;-82
2023/02/05 01:57:32;;;;;;;11.43;4.50;;;1.60;99.90;;;;;;4992885;28;20233;-82
2023/02/05 01:59:58;;;;;;;9.13;4.05;;;1.60;99.90;;;;;;4997822;28;20418;-81
2023/02/05 02:02:25;;;;;;;9.80;4.65;;;1.60;99.90;;;;;;5000499;28;20046;-84
2023/02/05 02:04:55;;;;;;;12.75;4.70;;;1.60;99.90;;;;;;4993254;28;20057;-81
2023/02/05 02:07:23;;;;;;;10.75;4.50;;;1.70;99.90;;;;;;4991342;28;20049;-82
2023/02/05 02:09:52;;;;;;;13.18;4.70;;;1.70;99.90;;;;;;5017073;28;20026;-81
2023/02/05 02:12:27;;;;;;;8.93;4.45;;;1.70;99.90;;;;;;4996246;28;20037;-82
2023/02/05 02:14:58;;;;;;;7.78;3.80;;;1.70;99.90;;;;;;4993050;28;20373;-82
2023/02/05 02:17:26;;;;;;;8.98;4.65;;;1.80;99.90;;;;;;4991831;28;20051;-83
2023/02/05 02:20:04;;;;;;;9.85;5.35;;;1.80;99.90;;;;;;4994884;28;20031;-82
2023/02/05 02:22:48;;;;;;;9.13;4.78;;;1.90;99.90;;;;;;4988568;28;20034;-81
2023/02/05 02:25:44;;;;;;;11.93;5.10;;;1.90;99.90;;;;;;4994158;28;20037;-84
2023/02/05 02:28:49;;;;;;;8.90;4.45;;;1.90;99.90;;;;;;4990767;28;20101;-82
2023/02/05 02:31:28;;;;;;;12.20;5.13;;;1.90;99.90;;;;;;4993586;28;20049;-82
2023/02/05 02:34:00;;;;;;;9.88;4.68;;;1.90;99.90;;;;;;4996359;28;20093;-80
2023/02/05 02:36:36;;;;;;;9.23;4.72;;;1.90;99.90;;;;;;4995757;28;20042;-81
2023/02/05 02:39:12;;;;;;;8.68;4.35;;;1.90;99.90;;;;;;4995946;28;20057;-81
2023/02/05 02:42:03;;;;;;;14.65;5.03;;;1.90;99.90;;;;;;4998224;28;20018;-83
2023/02/05 02:44:56;;;;;;;10.38;4.68;;;1.90;99.90;;;;;;4997892;28;20488;-81
2023/02/05 02:47:27;;;;;;;11.18;4.68;;;1.90;99.90;;;;;;4993192;28;20047;-81
2023/02/05 02:50:05;;;;;;;10.82;4.88;;;1.90;99.90;;;;;;4997853;28;20034;-82
2023/02/05 02:52:35;;;;;;;10.93;5.05;;;1.90;99.90;;;;;;5018927;28;20073;-81
2023/02/05 02:55:08;;;;;;;11.88;5.45;;;1.90;99.90;;;;;;4996541;28;20035;-78
2023/02/05 02:57:38;;;;;;;10.88;4.97;;;1.90;99.90;;;;;;4995735;28;20062;-78
2023/02/05 03:00:09;;;;;;;9.98;5.25;;;1.90;99.90;;;;;;4996596;28;20090;-79
2023/02/05 03:02:37;;;;;;;9.70;4.57;;;1.90;99.90;;;;;;4994962;28;20027;-83
2023/02/05 03:05:08;;;;;;;14.10;5.00;;;1.90;99.90;;;;;;4994093;28;20039;-79
2023/02/05 03:07:40;;;;;;;13.48;5.05;;;1.90;99.90;;;;;;4992973;28;20038;-83
2023/02/05 03:10:42;;;;;;;9.15;4.85;;;1.90;99.90;;;;;;4999248;28;20015;-82
2023/02/05 03:13:12;;;;;;;13.05;5.40;;;1.80;99.90;;;;;;5020967;28;20034;-82
2023/02/05 03:15:42;;;;;;;14.43;4.53;;;1.80;99.90;;;;;;4998113;28;20037;-81
2023/02/05 03:18:07;;;;;;;12.13;5.88;;;1.70;99.90;;;;;;4997460;28;20030;-83
2023/02/05 03:20:54;;;;;;;10.32;5.20;;;1.70;99.90;;;;;;4997168;28;20030;-82
2023/02/05 03:23:20;;;;;;;15.23;5.40;;;1.70;99.90;;;;;;5020463;28;20081;-82
2023/02/05 03:25:46;;;;;;;13.25;5.80;;;1.70;99.90;;;;;;5006561;28;20034;-83
2023/02/05 03:28:12;;;;;;;11.30;5.70;;;1.70;99.90;;;;;;5006354;28;20055;-81
2023/02/05 03:30:47;;;;;;;11.25;5.60;;;1.70;99.90;;;;;;5007286;28;20078;-80
2023/02/05 03:33:48;;;;;;;15.48;5.40;;;1.70;99.90;;;;;;5006309;28;20077;-81
2023/02/05 03:36:29;;;;;;;10.60;5.03;;;1.70;99.90;;;;;;5005546;28;20034;-79
2023/02/05 03:39:10;;;;;;;10.38;5.35;;;1.70;99.90;;;;;;5005256;28;20030;-82
2023/02/05 03:41:57;;;;;;;9.35;5.20;;;1.70;99.90;;;;;;5006787;28;20427;-83
2023/02/05 03:44:42;;;;;;;12.00;5.65;;;1.70;99.90;;;;;;5007337;28;20053;-82
2023/02/05 03:47:34;;;;;;;10.68;5.15;;;1.70;99.90;;;;;;5005662;28;20065;-81
2023/02/05 03:50:29;;;;;;;12.15;5.43;;;1.60;99.90;;;;;;5005298;28;20065;-81
2023/02/05 03:53:05;;;;;;;10.15;5.70;;;1.70;99.90;;;;;;5005896;28;20039;-83
2023/02/05 03:55:40;;;;;;;11.25;5.60;;;1.60;99.90;;;;;;5006079;28;20457;-79
2023/02/05 03:58:25;;;;;;;12.95;5.72;;;1.60;99.90;;;;;;5006304;28;20052;-82
2023/02/05 04:00:51;;;;;;;19.13;6.40;;;1.60;99.90;;;;;;5004671;28;20045;-82
2023/02/05 04:03:17;;;;;;;12.82;5.50;;;1.60;99.90;;;;;;5006562;28;20103;-81
2023/02/05 04:05:43;;;;;;;13.70;6.22;;;1.60;99.90;;;;;;5003146;28;20022;-81
2023/02/05 04:08:09;;;;;;;14.88;6.60;;;1.60;99.90;;;;;;5004879;28;20077;-82
2023/02/05 04:10:35;;;;;;;12.13;5.55;;;1.60;99.90;;;;;;5006383;28;20057;-80
2023/02/05 04:13:00;;;;;;;11.90;6.55;;;1.60;99.90;;;;;;5005819;28;20026;-83
2023/02/05 04:15:26;;;;;;;13.75;6.57;;;1.60;99.90;;;;;;5005898;28;20046;-81
2023/02/05 04:17:52;;;;;;;12.65;6.68;;;1.60;99.90;;;;;;5004830;28;20105;-82
2023/02/05 04:20:17;;;;;;;12.63;6.45;;;1.60;99.90;;;;;;5005015;28;20088;-79
2023/02/05 04:22:43;;;;;;;13.88;6.88;;;1.60;99.90;;;;;;5004504;28;20033;-82
2023/02/05 04:25:08;;;;;;;13.27;7.20;;;1.50;99.90;;;;;;5004934;28;20133;-78
2023/02/05 04:27:34;;;;;;;14.30;6.45;;;1.50;99.90;;;;;;5005574;28;20121;-81
2023/02/05 04:30:00;;;;;;;16.75;6.82;;;1.50;99.90;;;;;;5004340;28;20030;-82
2023/02/05 04:32:25;;;;;;;14.95;6.78;;;1.50;99.90;;;;;;5004560;28;20034;-82
2023/02/05 04:34:51;;;;;;;12.05;6.20;;;1.50;99.90;;;;;;5004698;28;20069;-81
2023/02/05 04:37:17;;;;;;;14.73;6.80;;;1.50;99.90;;;;;;5004762;28;20110;-80
2023/02/05 04:39:42;;;;;;;12.98;7.45;;;1.50;99.90;;;;;;5005964;28;20033;-81
2023/02/05 04:42:08;;;;;;;15.30;7.47;;;1.40;99.90;;;;;;5004005;28;20033;-79
2023/02/05 04:44:33;;;;;;;15.68;7.93;;;1.50;99.90;;;;;;5005176;28;20040;-79
2023/02/05 04:46:59;;;;;;;16.48;7.85;;;1.50;99.90;;;;;;5004032;28;20037;-81
2023/02/05 04:49:24;;;;;;;14.35;7.55;;;1.50;99.90;;;;;;5004001;28;20022;-81
2023/02/05 04:51:50;;;;;;;14.95;7.93;;;1.50;99.90;;;;;;5005304;28;20026;-81
2023/02/05 04:54:16;;;;;;;16.27;8.13;;;1.50;99.90;;;;;;5004634;28;20022;-81
2023/02/05 04:56:41;;;;;;;15.35;7.20;;;1.50;99.90;;;;;;5004330;28;20062;-83
2023/02/05 04:59:07;;;;;;;14.93;7.65;;;1.50;99.90;;;;;;5003693;28;20065;-80
2023/02/05 05:01:33;;;;;;;16.42;7.40;;;1.60;99.90;;;;;;5003468;28;20047;-84
2023/02/05 05:03:58;;;;;;;14.40;7.93;;;1.50;99.90;;;;;;5003710;28;20022;-82
2023/02/05 05:06:24;;;;;;;21.30;8.40;;;1.60;99.90;;;;;;5004361;28;20036;-82
2023/02/05 05:08:49;;;;;;;13.82;7.68;;;1.60;99.90;;;;;;5004806;28;20074;-81
2023/02/05 05:11:17;;;;;;;16.90;7.95;;;1.60;99.90;;;;;;5004552;28;20030;-80
2023/02/05 05:13:43;;;;;;;17.23;8.25;;;1.60;99.90;;;;;;5003958;28;20034;-81
2023/02/05 05:16:10;;;;;;;15.35;8.07;;;1.60;99.90;;;;;;5005301;28;20045;-82
2023/02/05 05:18:36;;;;;;;19.13;8.25;;;1.60;99.90;;;;;;5004035;28;20028;-82
2023/02/05 05:21:02;;;;;;;17.13;8.00;;;1.60;99.90;;;;;;5003337;28;20033;-82
2023/02/05 05:23:28;;;;;;;16.50;7.75;;;1.70;99.90;;;;;;5003465;28;20034;-82
2023/02/05 05:25:54;;;;;;;13.85;7.32;;;1.80;99.90;;;;;;5000008;28;20110;-80
2023/02/05 05:28:19;;;;;;;16.23;7.90;;;1.70;99.90;;;;;;4984101;28;20141;-83
2023/02/05 05:30:46;;;;;;;14.43;7.47;;;1.70;99.90;;;;;;4995697;28;20023;-82
2023/02/05 05:33:12;;;;;;;16.88;8.43;;;1.70;99.90;;;;;;5005183;28;20029;-84
2023/02/05 05:35:38;;;;;;;18.55;7.90;;;1.70;99.90;;;;;;5003882;28;20030;-82
2023/02/05 05:38:04;;;;;;;16.50;7.95;;;1.70;99.90;;;;;;5005150;28;20049;-81
2023/02/05 05:46:02;;;;;;;16.98;8.55;;;1.70;99.90;;;;;;5005076;28;20049;-81
2023/02/05 05:48:28;;;;;;;14.98;8.35;;;1.80;99.90;;;;;;5003196;28;20042;-78
2023/02/05 05:50:54;;;;;;;15.25;8.13;;;1.70;99.90;;;;;;5003190;28;20035;-78
2023/02/05 05:53:20;;;;;;;18.77;8.77;;;1.70;99.90;;;;;;5003129;28;20056;-79
2023/02/05 05:55:45;;;;;;;17.75;9.15;;;1.70;99.90;;;;;;5004001;28;20096;-79
2023/02/05 05:58:11;;;;;;;21.02;8.40;;;1.70;99.90;;;;;;4997596;28;20102;-79
2023/02/05 06:00:37;;;;;;;16.23;8.35;;;1.70;99.90;;;;;;5003089;28;20117;-79
2023/02/05 06:03:03;;;;;;;18.85;8.65;;;1.70;99.90;;;;;;5005225;28;20031;-79
2023/02/05 06:05:30;;;;;;;21.10;8.77;;;1.60;99.90;;;;;;5007148;28;20041;-78
2023/02/05 06:07:55;;;;;;;19.70;9.15;;;1.60;99.90;;;;;;5007200;28;20042;-79
2023/02/05 06:10:21;;;;;;;18.17;8.65;;;1.60;99.90;;;;;;5006541;28;20030;-79
2023/02/05 06:12:46;;;;;;;17.15;9.00;;;1.60;99.90;;;;;;5007100;28;20026;-80
2023/02/05 06:15:12;;;;;;;17.23;9.18;;;1.50;99.90;;;;;;5006950;28;20027;-77
2023/02/05 06:17:38;;;;;;;21.00;8.95;;;1.50;99.90;;;;;;5006703;28;20026;-77
2023/02/05 06:20:04;;;;;;;17.35;9.55;;;1.50;99.90;;;;;;5006565;28;20037;-78
2023/02/05 06:22:30;;;;;;;20.77;9.73;;;1.40;99.90;;;;;;5007283;28;20026;-76
2023/02/05 06:24:56;;;;;;;20.42;9.95;;;1.40;99.90;;;;;;5005650;28;20050;-76
2023/02/05 06:27:21;;;;;;;20.42;9.88;;;1.40;99.90;;;;;;5007058;28;20069;-75
2023/02/05 06:29:47;;;;;;;22.42;11.05;;;1.40;99.90;;;;;;5005352;28;20053;-75
2023/02/05 06:32:12;;;;;;;19.38;10.10;;;1.30;99.90;;;;;;5005501;28;20031;-74
2023/02/05 06:34:38;;;;;;;18.88;9.30;;;1.30;99.90;;;;;;5007274;28;20073;-73
2023/02/05 06:37:03;;;;;;;23.90;10.93;;;1.30;99.90;;;;;;5005783;28;20041;-74
2023/02/05 06:39:29;;;;;;;22.63;10.57;;;1.30;99.90;;;;;;5005657;28;20041;-73
2023/02/05 06:41:55;;;;;;;23.65;11.23;;;1.30;99.90;;;;;;5005936;28;20031;-74
2023/02/05 06:44:20;;;;;;;24.30;11.02;;;1.30;99.90;;;;;;5005589;28;20061;-73
2023/02/05 06:46:46;;;;;;;25.65;12.48;;;1.20;99.90;;;;;;5002581;28;20031;-73
2023/02/05 06:49:12;;;;;;;21.52;12.25;;;1.20;99.90;;;;;;5004491;28;20050;-72
2023/02/05 06:51:37;;;;;;;22.90;11.15;;;1.20;99.90;;;;;;4999880;28;20034;-73
2023/02/05 06:54:03;;;;;;;26.30;12.02;;;1.30;99.90;;;;;;5000291;28;20041;-72
2023/02/05 06:56:28;;;;;;;22.52;12.05;;;1.30;99.90;;;;;;4997387;28;20050;-72
2023/02/05 06:58:54;;;;;;;22.98;11.88;;;1.30;99.90;;;;;;4996700;28;20045;-71
2023/02/05 07:01:20;;;;;;;21.38;11.57;;;1.30;99.90;;;;;;5001155;28;20014;-73
2023/02/05 07:03:47;;;;;;;25.55;12.02;;;1.30;99.90;;;;;;5002384;28;20384;-73
2023/02/05 07:06:13;;;;;;;20.85;11.63;;;1.30;99.90;;;;;;5004130;28;20041;-74
2023/02/05 07:08:38;;;;;;;24.23;11.68;;;1.40;99.90;;;;;;5001458;28;20034;-74
2023/02/05 07:11:04;;;;;;;28.13;12.43;;;1.40;99.90;;;;;;5001391;28;20037;-75
2023/02/05 07:13:30;;;;;;;23.50;12.82;;;1.40;99.90;;;;;;4999403;28;20038;-73
2023/02/05 07:15:55;;;;;;;26.73;12.80;;;1.40;99.90;;;;;;5003742;28;20038;-72
2023/02/05 07:18:21;;;;;;;22.88;11.95;;;1.40;99.90;;;;;;5006031;28;20026;-73
2023/02/05 07:20:47;;;;;;;26.35;13.00;;;1.40;99.90;;;;;;5001338;28;20177;-72
2023/02/05 07:23:13;;;;;;;25.50;11.45;;;1.40;99.90;;;;;;4994093;28;20090;-73
2023/02/05 07:25:39;;;;;;;32.50;14.48;;;1.40;99.90;;;;;;5019199;28;20045;-72
2023/02/05 07:28:07;;;;;;;29.98;12.32;;;1.40;99.90;;;;;;5001848;28;20065;-72
2023/02/05 07:30:36;;;;;;;30.23;12.25;;;1.40;99.90;;;;;;5002186;28;20034;-71
2023/02/05 07:33:02;;;;;;;21.20;11.52;;;1.40;99.90;;;;;;4998428;28;20054;-72
2023/02/05 07:35:35;;;;;;;25.35;12.23;;;1.30;99.90;;;;;;5001003;28;20076;-74
2023/02/05 07:38:01;;;;;;;26.23;12.50;;;1.30;99.90;;;;;;5004852;28;20038;-72
2023/02/05 07:40:26;;;;;;;23.13;12.60;;;1.40;99.90;;;;;;5004783;28;20388;-72
2023/02/05 07:42:52;;;;;;;22.90;11.13;;;1.40;99.90;;;;;;5005800;28;20037;-72
2023/02/05 07:45:17;;;;;;;26.30;12.95;;;1.40;99.90;;;;;;5002357;28;20050;-73
2023/02/05 07:47:43;;;;;;;25.45;12.73;;;1.40;99.90;;;;;;5004432;28;20042;-73
2023/02/05 07:50:09;;;;;;;26.38;12.52;;;1.40;99.90;;;;;;5004686;28;20026;-73
2023/02/05 07:52:34;;;;;;;24.85;13.15;;;1.40;99.90;;;;;;5004538;28;20038;-73
2023/02/05 07:55:00;;;;;;;22.63;11.85;;;1.40;99.90;;;;;;5004392;28;20023;-73
2023/02/05 07:57:25;;;;;;;22.42;11.60;;;1.40;99.90;;;;;;5003426;28;20475;-74
2023/02/05 07:59:51;;;;;;;23.98;12.77;;;1.40;99.90;;;;;;5003570;28;20061;-75
2023/02/05 08:02:17;;;;;;;23.02;12.85;;;1.40;99.90;;;;;;5002606;28;20026;-75
2023/02/05 08:04:42;;;;;;;22.67;11.70;;;1.40;99.90;;;;;;5005516;28;20105;-74
2023/02/05 08:07:11;;;;;;;23.35;12.05;;;1.40;99.90;;;;;;5003372;28;20456;-74
2023/02/05 08:09:37;;;;;;;20.13;10.45;;;1.40;99.90;;;;;;5003695;28;20129;-73
2023/02/05 08:12:03;;;;;;;25.35;11.98;;;1.40;99.90;;;;;;5005344;28;20096;-77
2023/02/05 08:14:30;;;;;;;21.10;12.73;;;1.40;99.90;;;;;;5005250;28;20027;-75
2023/02/05 08:16:57;;;;;;;23.52;13.45;;;1.40;99.90;;;;;;5004177;28;20094;-76
2023/02/05 08:19:23;;;;;;;20.65;12.57;;;1.40;99.90;;;;;;5020307;28;20117;-76
2023/02/05 08:21:48;;;;;;;27.45;13.20;;;1.50;99.90;;;;;;5004803;28;20027;-77
2023/02/05 08:24:14;;;;;;;23.88;12.65;;;1.50;99.90;;;;;;5004584;28;20022;-76
2023/02/05 08:26:40;;;;;;;24.13;12.55;;;1.50;99.90;;;;;;5001890;28;20044;-75
2023/02/05 08:29:07;;;;;;;23.98;13.10;;;1.50;99.90;;;;;;5003009;28;20041;-77
2023/02/05 08:31:33;;;;;;;27.58;12.60;;;1.50;99.90;;;;;;4999659;28;20030;-76
2023/02/05 08:33:59;;;;;;;25.17;11.68;;;1.50;99.90;;;;;;5002681;28;20029;-73
2023/02/05 08:36:26;;;;;;;30.30;14.15;;;1.50;99.90;;;;;;5004455;28;20034;-76
2023/02/05 08:38:51;;;;;;;28.23;13.38;;;1.50;99.90;;;;;;5003267;28;20030;-76
2023/02/05 08:41:17;;;;;;;25.65;12.57;;;1.50;99.90;;;;;;5005161;28;20053;-75
2023/02/05 08:43:46;;;;;;;24.02;12.73;;;1.50;99.90;;;;;;5003789;28;20026;-75
2023/02/05 08:46:15;;;;;;;23.55;13.00;;;1.60;99.90;;;;;;5003597;28;20057;-76
2023/02/05 08:48:41;;;;;;;28.63;13.85;;;1.50;99.90;;;;;;5004474;28;20038;-75
2023/02/05 08:51:09;;;;;;;26.85;13.43;;;1.50;99.90;;;;;;5003035;28;20026;-76
2023/02/05 08:53:35;;;;;;;24.40;12.75;;;1.60;99.90;;;;;;5001862;28;20031;-74
2023/02/05 08:56:03;;;;;;;21.52;11.85;;;1.60;99.90;;;;;;5004448;28;20033;-75
2023/02/05 08:58:29;;;;;;;25.50;11.63;;;1.50;99.90;;;;;;5002121;28;20110;-75
2023/02/05 09:01:06;;;;;;;26.83;13.07;;;1.60;99.90;;;;;;5017210;28;20022;-76
2023/02/05 09:03:32;;;;;;;23.90;12.02;;;1.60;99.90;;;;;;5003004;28;20023;-76
2023/02/05 09:05:59;;;;;;;25.27;12.52;;;1.70;99.90;;;;;;5001611;28;20037;-76
2023/02/05 09:08:26;;;;;;;24.85;12.90;;;1.70;99.90;;;;;;5002736;28;20049;-75
2023/02/05 09:10:52;;;;;;;22.45;12.40;;;1.70;99.90;;;;;;4997634;28;20066;-75
2023/02/05 09:13:17;;;;;;;26.08;12.23;;;1.80;99.90;;;;;;5003500;28;20035;-76
2023/02/05 09:15:45;;;;;;;21.65;11.50;;;1.80;99.90;;;;;;5002275;28;20029;-75
2023/02/05 09:18:11;;;;;;;24.35;11.50;;;1.90;99.90;;;;;;4999326;28;20030;-75
2023/02/05 09:20:45;;;;;;;24.15;12.27;;;1.90;99.90;;;;;;4994267;28;20027;-76
2023/02/05 09:23:11;;;;;;;;;;;1.80;99.90;;;;;;4994436;28;20037;-75
2023/02/05 09:25:38;;;;;;;23.13;10.65;;;1.90;99.90;;;;;;4982890;28;19960;-75
2023/02/05 09:28:06;;;;;;;27.17;11.20;;;1.90;99.90;;;;;;4987261;28;20049;-76
2023/02/05 09:30:33;;;;;;;25.00;12.30;;;1.90;99.90;;;;;;4997104;28;20046;-77
2023/02/05 09:32:58;;;;;;;26.25;12.85;;;1.90;99.90;;;;;;4999822;28;20018;-76
2023/02/05 09:35:24;;;;;;;23.65;12.30;;;1.90;99.90;;;;;;5001969;28;20023;-76
2023/02/05 09:37:49;;;;;;;24.73;11.75;;;1.90;99.90;;;;;;5017032;28;20030;-76
2023/02/05 09:40:29;;;;;;;20.88;11.00;;;2.00;99.90;;;;;;4997680;28;20023;-75
2023/02/05 09:43:06;;;;;;;25.98;12.98;;;2.00;99.90;;;;;;4998829;28;20097;-76
2023/02/05 09:45:40;;;;;;;25.25;11.93;;;2.00;99.90;;;;;;4991809;28;20114;-75
2023/02/05 09:48:24;;;;;;;;;;;2.10;99.90;;;;;;4993674;28;20043;-76
2023/02/05 09:50:50;;;;;;;22.55;11.57;;;2.20;99.90;;;;;;5002362;28;19914;-77
2023/02/05 09:53:20;;;;;;;23.50;12.15;;;2.20;99.90;;;;;;4997249;28;20102;-75
2023/02/05 09:55:46;;;;;;;23.55;12.13;;;2.20;99.90;;;;;;4991085;28;20074;-77
2023/02/05 09:58:20;;;;;;;26.67;12.00;;;2.20;99.90;;;;;;5002343;28;20046;-76
2023/02/05 10:00:52;;;;;;;23.15;11.77;;;2.30;99.90;;;;;;5003956;28;20044;-75
2023/02/05 10:03:42;;;;;;;21.00;11.68;;;2.30;99.90;;;;;;5004869;28;20078;-77
2023/02/05 10:06:10;;;;;;;21.95;11.18;;;2.30;99.90;;;;;;4996237;28;20035;-75
2023/02/05 10:08:57;;;;;;;24.15;12.55;;;2.30;99.90;;;;;;5003672;28;20038;-75
2023/02/05 10:11:50;;;;;;;24.08;11.48;;;2.30;99.90;;;;;;4998548;28;20033;-76
2023/02/05 10:14:25;;;;;;;21.55;11.20;;;2.40;99.90;;;;;;5000205;28;20511;-77
2023/02/05 10:17:08;;;;;;;22.60;11.65;;;2.40;99.90;;;;;;4994911;28;20093;-78
2023/02/05 10:20:19;;;;;;;24.25;11.63;;;2.50;99.90;;;;;;4997130;28;20046;-76
2023/02/05 10:23:15;;;;;;;20.58;10.80;;;2.50;99.90;;;;;;4992534;28;20046;-76
2023/02/05 10:25:48;;;;;;;21.88;10.57;;;2.60;99.90;;;;;;5014714;28;20058;-77
2023/02/05 10:28:29;;;;;;;23.33;10.57;;;2.60;99.90;;;;;;4999273;28;20034;-75
2023/02/05 10:30:58;;;;;;;18.85;10.43;;;2.70;99.90;;;;;;5002313;28;20065;-78
2023/02/05 10:33:41;;;;;;;21.23;11.20;;;2.80;99.90;;;;;;4999495;28;20023;-75
2023/02/05 10:36:09;;;;;;;19.27;10.98;;;2.90;99.90;;;;;;4994302;28;20034;-75
2023/02/05 10:38:43;;;;;;;19.60;10.95;;;2.90;99.90;;;;;;5003543;28;20052;-76
2023/02/05 10:41:35;;;;;;;22.52;10.60;;;3.00;99.90;;;;;;5004389;28;20548;-75
2023/02/05 10:44:13;;;;;;;22.05;11.30;;;3.10;99.90;;;;;;4984260;28;20094;-76
2023/02/05 10:46:41;;;;;;;25.00;12.73;;;3.10;99.90;;;;;;4995549;28;20086;-76
2023/02/05 10:49:32;;;;;;;22.85;12.40;;;3.20;99.90;;;;;;5003399;28;20038;-75
2023/02/05 10:51:58;;;;;;;18.38;10.68;;;3.20;99.90;;;;;;5006028;28;20041;-75
2023/02/05 10:54:32;;;;;;;17.92;10.35;;;3.30;99.90;;;;;;5004561;28;20022;-76
2023/02/05 10:56:59;;;;;;;18.63;10.90;;;3.30;99.90;;;;;;5021848;28;20081;-77
2023/02/05 10:59:35;;;;;;;21.08;11.05;;;3.30;99.90;;;;;;5017592;28;20057;-77
2023/02/05 11:02:04;;;;;;;22.38;11.00;;;3.30;99.90;;;;;;5003044;28;20117;-77
2023/02/05 11:04:40;;;;;;;26.85;12.70;;;3.20;99.90;;;;;;5004449;28;20049;-76
2023/02/05 11:07:12;;;;;;;31.98;14.48;;;3.20;99.90;;;;;;5020095;28;20041;-76
2023/02/05 11:09:38;;;;;;;30.00;14.55;;;3.20;99.90;;;;;;5006357;28;20035;-77
2023/02/05 11:12:15;;;;;;;21.67;12.40;;;3.20;99.90;;;;;;5022419;28;20109;-76
2023/02/05 11:14:44;;;;;;;21.55;11.68;;;3.20;99.90;;;;;;5022331;28;20049;-76
2023/02/05 11:17:20;;;;;;;26.30;12.70;;;3.10;99.90;;;;;;5006764;28;20140;-76
2023/02/05 11:19:59;;;;;;;21.95;11.40;;;3.10;99.90;;;;;;5005444;28;20053;-78
2023/02/05 11:22:28;;;;;;;21.58;11.05;;;3.10;99.90;;;;;;5004390;28;20502;-76
2023/02/05 11:25:25;;;;;;;17.73;10.45;;;3.20;99.90;;;;;;5016062;28;20038;-75
2023/02/05 11:27:54;;;;;;;19.75;10.48;;;3.20;99.90;;;;;;5004221;28;20035;-77
2023/02/05 11:30:37;;;;;;;37.38;18.20;;;3.20;99.90;;;;;;5003869;28;20093;-75
2023/02/05 11:33:26;;;;;;;21.60;11.73;;;3.30;99.90;;;;;;5005607;28;20041;-75
2023/02/05 11:36:14;;;;;;;21.33;11.20;;;3.30;99.90;;;;;;5005825;28;20038;-76
2023/02/05 11:38:42;;;;;;;30.85;13.20;;;3.30;99.90;;;;;;5004398;28;20041;-77
2023/02/05 11:41:10;;;;;;;26.40;13.63;;;3.40;99.90;;;;;;5005379;28;20047;-75
2023/02/05 11:43:47;;;;;;;26.02;13.98;;;3.40;99.90;;;;;;5004664;28;20554;-75
2023/02/05 11:46:17;;;;;;;31.30;18.13;;;3.40;99.90;;;;;;5005630;28;20109;-77
2023/02/05 11:48:45;;;;;;;38.53;20.38;;;3.40;99.90;;;;;;5005766;28;20035;-76
2023/02/05 11:51:16;;;;;;;26.75;13.30;;;3.40;99.90;;;;;;5003013;28;20027;-75
2023/02/05 11:54:06;;;;;;;26.92;13.75;;;3.40;99.90;;;;;;5004203;28;20037;-74
2023/02/05 11:56:32;;;;;;;25.55;13.55;;;3.40;99.90;;;;;;5006275;28;20050;-76
2023/02/05 11:59:15;;;;;;;25.08;13.35;;;3.40;99.90;;;;;;5005276;28;20137;-75
2023/02/05 12:01:42;;;;;;;31.45;15.77;;;3.50;99.90;;;;;;5006401;28;20105;-75
2023/02/05 12:04:10;;;;;;;29.27;15.10;;;3.50;99.90;;;;;;5004951;28;20035;-75
2023/02/05 12:06:39;;;;;;;27.85;15.48;;;3.50;99.90;;;;;;5005065;28;20039;-76
2023/02/05 12:09:05;;;;;;;25.63;13.38;;;3.50;99.90;;;;;;5006162;28;20037;-76
2023/02/05 12:12:10;;;;;;;32.50;17.75;;;3.50;99.90;;;;;;5005370;28;20030;-77
2023/02/05 12:14:50;;;;;;;34.70;18.27;;;3.50;99.90;;;;;;4989862;28;20030;-76
2023/02/05 12:17:19;;;;;;;32.92;18.05;;;3.50;99.90;;;;;;5001439;28;20046;-76
2023/02/05 12:19:52;;;;;;;40.53;18.10;;;3.50;99.90;;;;;;5006240;28;20022;-76
2023/02/05 12:22:45;;;;;;;30.92;16.67;;;3.50;99.90;;;;;;5001849;28;20036;-77
2023/02/05 12:25:34;;;;;;;40.42;18.05;;;3.50;99.90;;;;;;4999948;28;20110;-76
2023/02/05 12:28:09;;;;;;;36.55;17.15;;;3.50;99.90;;;;;;5004652;28;20093;-77
2023/02/05 12:30:39;;;;;;;37.00;18.20;;;3.50;99.90;;;;;;5005886;28;20026;-76
2023/02/05 12:33:14;;;;;;;38.53;18.85;;;3.50;99.90;;;;;;5005942;28;20042;-77
2023/02/05 12:36:01;;;;;;;37.85;19.38;;;3.50;99.90;;;;;;5004683;28;20066;-76
2023/02/05 12:38:52;;;;;;;44.25;21.00;;;3.50;99.90;;;;;;5001470;28;20030;-76
2023/02/05 12:41:32;;;;;;;36.85;20.95;;;3.50;99.90;;;;;;5005950;28;20026;-76
2023/02/05 12:44:35;;;;;;;47.38;23.65;;;3.50;99.90;;;;;;5004316;28;20032;-75
2023/02/05 12:47:33;;;;;;;45.42;20.40;;;3.50;99.90;;;;;;4988819;28;20120;-75
2023/02/05 12:50:25;;;;;;;46.38;22.88;;;3.60;99.90;;;;;;5003641;28;20049;-75
2023/02/05 12:52:57;;;;;;;47.58;21.67;;;3.60;99.90;;;;;;5005138;28;20026;-76
2023/02/05 12:55:39;;;;;;;48.45;23.88;;;3.60;99.90;;;;;;5004502;28;20022;-77
2023/02/05 12:58:09;;;;;;;59.28;28.63;;;3.70;99.90;;;;;;5003105;28;20072;-76
2023/02/05 13:00:54;;;;;;;66.35;30.95;;;3.70;99.90;;;;;;5003592;28;20034;-76
2023/02/05 13:03:37;;;;;;;63.03;28.02;;;3.80;99.90;;;;;;5003835;28;20038;-76
2023/02/05 13:06:25;;;;;;;56.85;27.10;;;3.80;99.90;;;;;;5005012;28;20034;-75